Mackville, Kentucky
Current Conditions -  °F | °C
As of 7:15 AM on Sunday 25 Jan 2015 (Local Time) from K6I2 Reporting Station
Clear Clear  
Wind Chill: 29°   Ceiling: Unl
Heat Index: 37°   Visibility: 10mi
Dew Point: 32°   Wind: 15mph
Humidity: 81%   Direction: 160°SSE
Pressure: 29.75"   Gusts: 18mph
Location:  37.74°N, 85.07°W
Report Text: K6I2 251215Z AUTO 16013G16KT 10SM CLR 03/00 A2975 RMK AO2
Loading
Personal Weather Stations






























Interactive Weather Map New forecast layout! Learn more

10-Day Weather Forecast

Advertisements
Track Severe Weather on mobile